Time;durP1;ratioP1;P1;durP2;ratioP2;P2;SDS_P1;SDS_P2;PMS_P1;PMS_P2;Temp;Humidity;BMP_temperature;BMP_pressure;BME280_temperature;BME280_humidity;BME280_pressure;Samples;Min_cycle;Max_cycle;Signal;HPM_P1;HPM_P2
2022/05/26 00:02:15;;;;;;;;;0.40;0.40;;;;;;;;5207845;28;8805;-66
2022/05/26 00:04:47;;;;;;;;;1.80;1.80;;;;;;;;5224866;28;8798;-67
2022/05/26 00:07:18;;;;;;;;;1.00;1.00;;;;;;;;5208491;28;8912;-68
2022/05/26 00:09:49;;;;;;;;;0.80;0.00;;;;;;;;5225449;28;9515;-68
2022/05/26 00:12:20;;;;;;;;;0.00;0.00;;;;;;;;5225877;28;8832;-68
2022/05/26 00:14:51;;;;;;;;;1.20;1.20;;;;;;;;5213302;28;11408;-68
2022/05/26 00:17:22;;;;;;;;;1.00;1.00;;;;;;;;5208476;28;8798;-69
2022/05/26 00:19:53;;;;;;;;;2.60;2.60;;;;;;;;5241069;28;8819;-68
2022/05/26 00:22:25;;;;;;;;;2.00;2.00;;;;;;;;5208123;28;8813;-68
2022/05/26 00:25:15;;;;;;;;;2.40;2.40;;;;;;;;5210105;28;8848;-68
2022/05/26 00:27:45;;;;;;;;;1.00;1.00;;;;;;;;5210259;28;8801;-68
2022/05/26 00:30:37;;;;;;;;;3.00;3.00;;;;;;;;5245306;28;8800;-69
2022/05/26 00:33:09;;;;;;;;;5.00;5.00;;;;;;;;5228480;28;8821;-69
2022/05/26 00:36:06;;;;;;;;;1.20;1.20;;;;;;;;5228445;28;8801;-68
2022/05/26 00:38:38;;;;;;;;;1.60;1.60;;;;;;;;5212008;28;8810;-68
2022/05/26 00:41:13;;;;;;;;;3.00;3.00;;;;;;;;5229019;28;8884;-69
2022/05/26 00:43:45;;;;;;;;;1.80;1.80;;;;;;;;5195398;28;8900;-68
2022/05/26 00:46:21;;;;;;;;;2.00;2.00;;;;;;;;5230168;28;8921;-68
2022/05/26 00:48:54;;;;;;;;;1.00;1.00;;;;;;;;5211888;28;8773;-68
2022/05/26 00:51:27;;;;;;;;;1.60;1.60;;;;;;;;5228198;28;8770;-69
2022/05/26 00:54:02;;;;;;;;;1.00;1.00;;;;;;;;5228060;28;8797;-69
2022/05/26 00:56:40;;;;;;;;;1.80;1.80;;;;;;;;5210983;28;8802;-68
2022/05/26 00:59:18;;;;;;;;;6.00;6.00;;;;;;;;5211411;28;8875;-69
2022/05/26 01:01:49;;;;;;;;;2.80;2.80;;;;;;;;5228090;28;8808;-69
2022/05/26 01:04:22;;;;;;;;;3.00;3.00;;;;;;;;5194598;28;8808;-70
2022/05/26 01:06:59;;;;;;;;;5.00;5.00;;;;;;;;5211123;28;9434;-67
2022/05/26 01:09:30;;;;;;;;;4.20;4.20;;;;;;;;5229823;28;8804;-67
2022/05/26 01:12:02;;;;;;;;;3.00;3.00;;;;;;;;5244232;28;8907;-67
2022/05/26 01:14:42;;;;;;;;;4.00;4.00;;;;;;;;5244073;28;8804;-68
2022/05/26 01:17:19;;;;;;;;;2.60;2.60;;;;;;;;5211342;28;8765;-68
2022/05/26 01:19:50;;;;;;;;;3.40;3.40;;;;;;;;5232575;28;9553;-67
2022/05/26 01:22:36;;;;;;;;;2.20;2.20;;;;;;;;5247952;28;8802;-67
2022/05/26 01:25:14;;;;;;;;;3.00;3.00;;;;;;;;5209925;28;8805;-67
2022/05/26 01:27:51;;;;;;;;;3.00;3.00;;;;;;;;5227570;28;8785;-67
2022/05/26 01:30:24;;;;;;;;;1.00;0.60;;;;;;;;5211015;28;8801;-67
2022/05/26 01:33:13;;;;;;;;;2.60;2.60;;;;;;;;5227372;28;8798;-67
2022/05/26 01:36:04;;;;;;;;;3.60;3.60;;;;;;;;5233958;28;8787;-68
2022/05/26 01:38:35;;;;;;;;;5.00;5.00;;;;;;;;5245119;28;8818;-67
2022/05/26 01:41:21;;;;;;;;;4.80;4.00;;;;;;;;5230988;28;8821;-67
2022/05/26 01:43:52;;;;;;;;;2.00;2.00;;;;;;;;5221311;28;8824;-67
2022/05/26 01:46:23;;;;;;;;;5.20;5.20;;;;;;;;5193483;28;8785;-67
2022/05/26 01:48:58;;;;;;;;;3.60;3.20;;;;;;;;5227234;28;8883;-68
2022/05/26 01:51:34;;;;;;;;;4.20;4.20;;;;;;;;5228084;28;8797;-68
2022/05/26 01:54:13;;;;;;;;;4.00;4.00;;;;;;;;5210050;28;8794;-69
2022/05/26 01:56:49;;;;;;;;;6.00;5.20;;;;;;;;5210151;28;8855;-67
2022/05/26 01:59:23;;;;;;;;;3.00;3.00;;;;;;;;5210056;28;8790;-67
2022/05/26 02:01:57;;;;;;;;;3.20;3.20;;;;;;;;5193589;28;8814;-67
2022/05/26 02:04:33;;;;;;;;;1.20;1.00;;;;;;;;5226753;28;8802;-67
2022/05/26 02:07:22;;;;;;;;;3.00;3.00;;;;;;;;5210142;28;8805;-68
2022/05/26 02:09:55;;;;;;;;;1.20;0.60;;;;;;;;5240937;28;8799;-68
2022/05/26 02:12:47;;;;;;;;;1.40;1.40;;;;;;;;5247228;28;8787;-68
2022/05/26 02:15:32;;;;;;;;;2.00;2.00;;;;;;;;5248197;28;8850;-68
2022/05/26 02:18:08;;;;;;;;;2.20;2.20;;;;;;;;5230759;28;8795;-68
2022/05/26 02:20:45;;;;;;;;;3.60;3.60;;;;;;;;5230496;28;8771;-68
2022/05/26 02:23:35;;;;;;;;;4.80;4.00;;;;;;;;5244469;28;8826;-69
2022/05/26 02:26:07;;;;;;;;;4.00;4.00;;;;;;;;5227194;28;8804;-68
2022/05/26 02:31:47;;;;;;;;;2.00;2.00;;;;;;;;5238933;28;8826;-68
2022/05/26 02:34:20;;;;;;;;;0.80;0.80;;;;;;;;5208777;28;8785;-69
2022/05/26 02:37:11;;;;;;;;;2.00;2.00;;;;;;;;5232582;28;8795;-68
2022/05/26 02:40:01;;;;;;;;;1.00;1.00;;;;;;;;5247963;28;8808;-68
2022/05/26 02:42:37;;;;;;;;;1.00;1.00;;;;;;;;5246100;28;8846;-68
2022/05/26 02:45:08;;;;;;;;;1.80;1.80;;;;;;;;5229692;28;8815;-68
2022/05/26 02:47:50;;;;;;;;;0.60;0.60;;;;;;;;5247438;28;8795;-68
2022/05/26 02:50:28;;;;;;;;;1.00;1.00;;;;;;;;5229320;28;8787;-68
2022/05/26 02:53:16;;;;;;;;;2.00;2.00;;;;;;;;5230276;28;8794;-68
2022/05/26 02:55:48;;;;;;;;;1.00;1.00;;;;;;;;5225878;28;8814;-68
2022/05/26 02:58:33;;;;;;;;;1.60;1.60;;;;;;;;5225463;28;9555;-67
2022/05/26 03:01:07;;;;;;;;;3.80;3.60;;;;;;;;5225368;28;9544;-67
2022/05/26 03:03:50;;;;;;;;;3.00;3.00;;;;;;;;5209012;28;8830;-67
2022/05/26 03:06:46;;;;;;;;;1.60;1.60;;;;;;;;5225702;28;8812;-67
2022/05/26 03:09:19;;;;;;;;;4.80;4.80;;;;;;;;5208996;28;8874;-67
2022/05/26 03:11:58;;;;;;;;;2.20;2.20;;;;;;;;5209007;28;8875;-67
2022/05/26 03:14:29;;;;;;;;;4.80;4.80;;;;;;;;5192447;28;8797;-68
2022/05/26 03:17:00;;;;;;;;;3.60;3.60;;;;;;;;5225096;28;8802;-67
2022/05/26 03:19:31;;;;;;;;;3.50;3.50;;;;;;;;5226448;28;8804;-68
2022/05/26 03:22:02;;;;;;;;;1.00;1.00;;;;;;;;5224948;28;12272;-67
2022/05/26 03:24:33;;;;;;;;;2.50;2.50;;;;;;;;5235460;28;8830;-67
2022/05/26 03:27:05;;;;;;;;;0.00;0.00;;;;;;;;5236334;28;8887;-68
2022/05/26 03:29:55;;;;;;;;;1.20;1.20;;;;;;;;5245607;28;8778;-67
2022/05/26 03:32:26;;;;;;;;;1.00;1.00;;;;;;;;5246754;28;8924;-67
2022/05/26 03:40:57;;;;;;;;;2.00;2.00;;;;;;;;5237221;28;8775;-68
2022/05/26 03:43:31;;;;;;;;;4.80;4.80;;;;;;;;5245508;28;8783;-68
2022/05/26 03:46:03;;;;;;;;;4.00;4.00;;;;;;;;5228445;28;8786;-68
2022/05/26 03:48:34;;;;;;;;;5.60;5.60;;;;;;;;5245195;28;8779;-68
2022/05/26 03:51:05;;;;;;;;;6.40;6.20;;;;;;;;5244875;28;9562;-68
2022/05/26 03:53:36;;;;;;;;;3.80;3.80;;;;;;;;5245182;28;8799;-68
2022/05/26 03:56:07;;;;;;;;;28.20;27.40;;;;;;;;5193212;28;9618;-68
2022/05/26 03:58:38;;;;;;;;;1.80;1.80;;;;;;;;5245023;28;8803;-69
2022/05/26 04:01:10;;;;;;;;;0.00;0.00;;;;;;;;5225849;28;8805;-68
2022/05/26 04:03:59;;;;;;;;;0.25;0.25;;;;;;;;5225014;28;8891;-68
2022/05/26 04:06:30;;;;;;;;;0.25;0.25;;;;;;;;5225711;28;8790;-68
2022/05/26 04:09:01;;;;;;;;;0.00;0.00;;;;;;;;5208034;28;8770;-68
2022/05/26 04:11:32;;;;;;;;;2.00;2.00;;;;;;;;5224408;28;8781;-68
2022/05/26 04:14:03;;;;;;;;;4.00;4.00;;;;;;;;5207769;28;12244;-68
2022/05/26 04:16:34;;;;;;;;;2.00;2.00;;;;;;;;5224084;28;8818;-68
2022/05/26 04:19:05;;;;;;;;;3.00;3.00;;;;;;;;5225485;28;9553;-68
2022/05/26 04:22:15;;;;;;;;;3.00;3.00;;;;;;;;5225539;28;8920;-69
2022/05/26 04:25:05;;;;;;;;;0.00;0.00;;;;;;;;5225599;28;8883;-68
2022/05/26 04:27:36;;;;;;;;;1.00;1.00;;;;;;;;5208344;28;8794;-69
2022/05/26 04:30:08;;;;;;;;;1.25;1.25;;;;;;;;5224970;28;8806;-67
2022/05/26 04:32:40;;;;;;;;;2.00;2.00;;;;;;;;5224126;28;8781;-67
2022/05/26 04:35:11;;;;;;;;;0.00;0.00;;;;;;;;5212337;28;8797;-68
2022/05/26 04:37:42;;;;;;;;;0.00;0.00;;;;;;;;5239499;28;8811;-67
2022/05/26 04:40:14;;;;;;;;;0.00;0.00;;;;;;;;5246316;28;8811;-67
2022/05/26 04:42:45;;;;;;;;;2.25;2.25;;;;;;;;5227908;28;11528;-66
2022/05/26 04:45:34;;;;;;;;;1.00;1.00;;;;;;;;5245114;28;8771;-66
2022/05/26 04:48:05;;;;;;;;;1.50;1.50;;;;;;;;5211525;28;9513;-67
2022/05/26 04:50:37;;;;;;;;;2.00;2.00;;;;;;;;5238210;28;8811;-67
2022/05/26 04:53:08;;;;;;;;;1.75;1.75;;;;;;;;5224243;28;8809;-66
2022/05/26 04:55:57;;;;;;;;;1.00;1.00;;;;;;;;5225555;28;8782;-66
2022/05/26 04:58:28;;;;;;;;;2.00;2.00;;;;;;;;5207362;28;9568;-66
2022/05/26 05:00:59;;;;;;;;;0.50;0.50;;;;;;;;5223863;28;11447;-66
2022/05/26 05:03:30;;;;;;;;;2.00;1.75;;;;;;;;5225171;28;8829;-66
2022/05/26 05:06:20;;;;;;;;;5.00;5.00;;;;;;;;5225043;28;8777;-66
2022/05/26 05:08:51;;;;;;;;;2.00;2.00;;;;;;;;5224960;28;8851;-66
2022/05/26 05:11:22;;;;;;;;;1.75;1.75;;;;;;;;5238201;28;8791;-67
2022/05/26 05:13:53;;;;;;;;;4.00;4.00;;;;;;;;5246779;28;11473;-67
2022/05/26 05:16:29;;;;;;;;;1.00;1.00;;;;;;;;5210243;28;8863;-68
2022/05/26 05:19:00;;;;;;;;;0.00;0.00;;;;;;;;5229318;28;8796;-67
2022/05/26 05:21:40;;;;;;;;;2.33;2.33;;;;;;;;5228554;28;9517;-67
2022/05/26 05:24:33;;;;;;;;;0.00;0.00;;;;;;;;5228637;28;11589;-67
2022/05/26 05:27:06;;;;;;;;;0.25;0.25;;;;;;;;5228525;28;8766;-67
2022/05/26 05:29:39;;;;;;;;;0.25;0.25;;;;;;;;5244793;28;8867;-67
2022/05/26 05:32:28;;;;;;;;;1.00;1.00;;;;;;;;5214696;28;8902;-67
2022/05/26 05:35:07;;;;;;;;;3.00;3.00;;;;;;;;5220275;28;8790;-67
2022/05/26 05:37:38;;;;;;;;;0.00;0.00;;;;;;;;5210791;28;9672;-67
2022/05/26 05:40:09;;;;;;;;;4.00;4.00;;;;;;;;5228779;28;8794;-67
2022/05/26 05:42:41;;;;;;;;;0.00;0.00;;;;;;;;5210220;28;8789;-67
2022/05/26 05:45:12;;;;;;;;;0.25;0.25;;;;;;;;5227130;28;9492;-67
2022/05/26 05:47:43;;;;;;;;;0.00;0.00;;;;;;;;5226869;28;8920;-67
2022/05/26 05:50:14;;;;;;;;;0.00;0.00;;;;;;;;5224298;28;8818;-67
2022/05/26 05:52:46;;;;;;;;;0.00;0.00;;;;;;;;5227253;28;8806;-68
2022/05/26 05:55:17;;;;;;;;;5.75;5.75;;;;;;;;5234127;28;8802;-67
2022/05/26 05:58:08;;;;;;;;;0.50;0.50;;;;;;;;5247730;28;8771;-67
2022/05/26 06:00:40;;;;;;;;;0.00;0.00;;;;;;;;5213746;28;8828;-67
2022/05/26 06:03:11;;;;;;;;;0.00;0.00;;;;;;;;5226986;28;8825;-67
2022/05/26 06:05:42;;;;;;;;;1.00;1.00;;;;;;;;5210113;28;8822;-67
2022/05/26 06:08:13;;;;;;;;;2.50;2.50;;;;;;;;5246058;28;8811;-68
2022/05/26 06:10:44;;;;;;;;;0.00;0.00;;;;;;;;5248097;28;8811;-67
2022/05/26 06:13:16;;;;;;;;;0.00;0.00;;;;;;;;5241223;28;8830;-67
2022/05/26 06:15:47;;;;;;;;;0.00;0.00;;;;;;;;5226907;28;8920;-67
2022/05/26 06:18:19;;;;;;;;;1.50;1.50;;;;;;;;5209874;28;8932;-67
2022/05/26 06:20:50;;;;;;;;;5.20;5.20;;;;;;;;5226373;28;8862;-67
2022/05/26 06:23:21;;;;;;;;;10.00;10.00;;;;;;;;5226036;28;8813;-68
2022/05/26 06:25:52;;;;;;;;;7.60;7.60;;;;;;;;5226561;28;11462;-67
2022/05/26 06:31:12;;;;;;;;;12.00;12.00;;;;;;;;5242622;28;9126;-67
2022/05/26 06:39:37;;;;;;;;;5.25;5.25;;;;;;;;5228571;28;9559;-67
2022/05/26 06:42:10;;;;;;;;;3.00;3.00;;;;;;;;5209526;28;9548;-67
2022/05/26 06:44:45;;;;;;;;;1.00;1.00;;;;;;;;5209199;28;8809;-67
2022/05/26 06:47:22;;;;;;;;;0.75;0.75;;;;;;;;5209264;28;8813;-67
2022/05/26 06:49:53;;;;;;;;;0.25;0.25;;;;;;;;5225938;28;8770;-67
2022/05/26 06:52:25;;;;;;;;;0.00;0.00;;;;;;;;5226590;28;8789;-67
2022/05/26 06:54:58;;;;;;;;;0.00;0.00;;;;;;;;5226275;28;8786;-67
2022/05/26 06:57:30;;;;;;;;;0.00;0.00;;;;;;;;5209297;28;9530;-67
2022/05/26 07:00:01;;;;;;;;;0.00;0.00;;;;;;;;5209021;28;8794;-67
2022/05/26 07:02:34;;;;;;;;;1.00;1.00;;;;;;;;5209324;28;8879;-67
2022/05/26 07:05:07;;;;;;;;;2.00;2.00;;;;;;;;5208976;28;8920;-67
2022/05/26 07:07:39;;;;;;;;;1.25;1.25;;;;;;;;5227439;28;8867;-67
2022/05/26 07:10:13;;;;;;;;;3.00;2.75;;;;;;;;5208731;28;8789;-67
2022/05/26 07:12:46;;;;;;;;;0.25;0.25;;;;;;;;5225330;28;8866;-67
2022/05/26 07:15:17;;;;;;;;;2.00;2.00;;;;;;;;5225140;28;8863;-67
2022/05/26 07:17:48;;;;;;;;;1.00;1.00;;;;;;;;5232067;28;8799;-68
2022/05/26 07:20:19;;;;;;;;;1.50;1.50;;;;;;;;5245771;28;8799;-67
2022/05/26 07:22:50;;;;;;;;;2.00;2.00;;;;;;;;5245949;28;8905;-67
2022/05/26 07:25:21;;;;;;;;;0.00;0.00;;;;;;;;5228914;28;8928;-68
2022/05/26 07:27:52;;;;;;;;;0.00;0.00;;;;;;;;5228933;28;9213;-67
2022/05/26 07:30:23;;;;;;;;;1.25;1.25;;;;;;;;5244926;28;8771;-67
2022/05/26 07:32:54;;;;;;;;;8.75;8.00;;;;;;;;5212374;28;8805;-67
2022/05/26 07:35:43;;;;;;;;;1.00;1.00;;;;;;;;5245308;28;11401;-67
2022/05/26 07:41:18;;;;;;;;;0.00;0.00;;;;;;;;5228797;28;8876;-67
2022/05/26 07:44:08;;;;;;;;;0.00;0.00;;;;;;;;5231274;28;8969;-67
2022/05/26 07:46:40;;;;;;;;;0.00;0.00;;;;;;;;5245856;28;8789;-67
2022/05/26 07:49:12;;;;;;;;;0.00;0.00;;;;;;;;5245782;28;8793;-67
2022/05/26 07:51:43;;;;;;;;;0.00;0.00;;;;;;;;5245166;28;8795;-67
2022/05/26 07:54:15;;;;;;;;;2.00;2.00;;;;;;;;5228332;28;8813;-67
2022/05/26 07:56:46;;;;;;;;;1.50;1.50;;;;;;;;5224637;28;8876;-67
2022/05/26 07:59:17;;;;;;;;;0.25;0.25;;;;;;;;5207791;28;8867;-67
2022/05/26 08:01:48;;;;;;;;;1.00;1.00;;;;;;;;5208022;28;8793;-67
2022/05/26 08:04:19;;;;;;;;;2.50;2.50;;;;;;;;5225728;28;8948;-67
2022/05/26 08:06:50;;;;;;;;;2.25;2.25;;;;;;;;5220859;28;8940;-67
2022/05/26 08:09:21;;;;;;;;;0.75;0.75;;;;;;;;5235222;28;8885;-67
2022/05/26 08:11:52;;;;;;;;;2.00;2.00;;;;;;;;5232104;28;8809;-67
2022/05/26 08:14:23;;;;;;;;;1.67;1.33;;;;;;;;5231234;28;8813;-68
2022/05/26 08:16:54;;;;;;;;;1.00;1.00;;;;;;;;5242567;28;9268;-68
2022/05/26 08:19:25;;;;;;;;;0.50;0.50;;;;;;;;5239281;28;8794;-67
2022/05/26 08:21:56;;;;;;;;;0.50;0.50;;;;;;;;5230248;28;8823;-67
2022/05/26 08:24:27;;;;;;;;;2.00;2.00;;;;;;;;5244705;28;8834;-67
2022/05/26 08:26:58;;;;;;;;;2.00;2.00;;;;;;;;5245326;28;11542;-68
2022/05/26 08:29:29;;;;;;;;;2.00;2.00;;;;;;;;5224139;28;8802;-67
2022/05/26 08:32:00;;;;;;;;;0.00;0.00;;;;;;;;5224256;28;8786;-67
2022/05/26 08:34:31;;;;;;;;;2.67;2.33;;;;;;;;5223735;28;11444;-67
2022/05/26 08:37:03;;;;;;;;;0.00;0.00;;;;;;;;5224562;28;8820;-67
2022/05/26 08:39:34;;;;;;;;;0.75;0.75;;;;;;;;5224200;28;8778;-67
2022/05/26 08:42:05;;;;;;;;;1.00;1.00;;;;;;;;5225465;28;8826;-67
2022/05/26 08:44:38;;;;;;;;;1.00;1.00;;;;;;;;5207407;28;8902;-66
2022/05/26 08:47:10;;;;;;;;;5.00;5.00;;;;;;;;5207469;28;8793;-67
2022/05/26 08:49:48;;;;;;;;;1.00;1.00;;;;;;;;5211857;28;8769;-67
2022/05/26 08:52:19;;;;;;;;;1.00;1.00;;;;;;;;5195333;28;9521;-67
2022/05/26 08:55:09;;;;;;;;;1.00;1.00;;;;;;;;5217217;28;8768;-67
2022/05/26 08:58:04;;;;;;;;;1.00;1.00;;;;;;;;5249117;28;8771;-67
2022/05/26 09:00:37;;;;;;;;;2.50;2.50;;;;;;;;5215552;28;8767;-67
2022/05/26 09:03:28;;;;;;;;;5.00;5.00;;;;;;;;5248659;28;8803;-67
2022/05/26 09:06:07;;;;;;;;;4.75;4.75;;;;;;;;5231242;28;8856;-67
2022/05/26 09:14:22;;;;;;;;;3.00;3.00;;;;;;;;5211014;28;8794;-66
2022/05/26 09:17:13;;;;;;;;;4.00;4.00;;;;;;;;5213836;28;8769;-67
2022/05/26 09:19:43;;;;;;;;;1.00;1.00;;;;;;;;5227571;28;9582;-66
2022/05/26 09:22:33;;;;;;;;;0.33;0.33;;;;;;;;5247170;28;8784;-67
2022/05/26 09:25:04;;;;;;;;;0.00;0.00;;;;;;;;5228452;28;8831;-67
2022/05/26 09:27:36;;;;;;;;;0.00;0.00;;;;;;;;5227565;28;8786;-67
2022/05/26 09:30:15;;;;;;;;;1.00;1.00;;;;;;;;5210821;28;9535;-67
2022/05/26 09:32:47;;;;;;;;;1.25;1.00;;;;;;;;5227312;28;8848;-67
2022/05/26 09:35:36;;;;;;;;;1.00;1.00;;;;;;;;5213170;28;8829;-67
2022/05/26 09:38:14;;;;;;;;;1.67;1.67;;;;;;;;5228429;28;8804;-66
2022/05/26 09:41:06;;;;;;;;;2.00;2.00;;;;;;;;5246863;28;11519;-67
2022/05/26 09:43:45;;;;;;;;;2.00;2.00;;;;;;;;5214717;28;8819;-67
2022/05/26 09:46:17;;;;;;;;;2.00;2.00;;;;;;;;5214772;28;8799;-66
2022/05/26 09:49:11;;;;;;;;;4.50;4.50;;;;;;;;5244205;28;8826;-67
2022/05/26 09:51:44;;;;;;;;;0.50;0.50;;;;;;;;5212975;28;8782;-67
2022/05/26 09:54:34;;;;;;;;;0.00;0.00;;;;;;;;5243693;28;8818;-66
2022/05/26 09:57:25;;;;;;;;;1.00;1.00;;;;;;;;5208180;28;8817;-66
2022/05/26 09:59:56;;;;;;;;;0.00;0.00;;;;;;;;5225323;28;8785;-66
2022/05/26 10:02:34;;;;;;;;;0.00;0.00;;;;;;;;5208461;28;8794;-67
2022/05/26 10:05:20;;;;;;;;;0.50;0.50;;;;;;;;5224765;28;11518;-67
2022/05/26 10:08:06;;;;;;;;;1.00;1.00;;;;;;;;5208293;28;8797;-67
2022/05/26 10:10:57;;;;;;;;;1.00;1.00;;;;;;;;5239190;28;8818;-67
2022/05/26 10:13:55;;;;;;;;;0.00;0.00;;;;;;;;5245305;28;8814;-67
2022/05/26 10:16:56;;;;;;;;;0.50;0.50;;;;;;;;5212137;28;8814;-67
2022/05/26 10:20:03;;;;;;;;;2.00;2.00;;;;;;;;5192826;28;9535;-67
2022/05/26 10:22:43;;;;;;;;;6.50;6.50;;;;;;;;5226743;28;8770;-67
2022/05/26 10:25:17;;;;;;;;;4.00;4.00;;;;;;;;5212476;28;9667;-67
2022/05/26 10:28:24;;;;;;;;;4.00;4.00;;;;;;;;5224529;28;8855;-67
2022/05/26 10:31:35;;;;;;;;;2.00;2.00;;;;;;;;5145331;28;8928;-66
2022/05/26 10:34:11;;;;;;;;;2.00;2.00;;;;;;;;5225654;28;8790;-67
2022/05/26 10:36:57;;;;;;;;;0.00;0.00;;;;;;;;5207979;28;8786;-69
2022/05/26 10:39:28;;;;;;;;;0.00;0.00;;;;;;;;5211083;28;8783;-67
2022/05/26 10:42:07;;;;;;;;;0.25;0.25;;;;;;;;5228590;28;8795;-69
2022/05/26 10:44:57;;;;;;;;;0.00;0.00;;;;;;;;5228338;28;8834;-67
2022/05/26 10:47:47;;;;;;;;;0.00;0.00;;;;;;;;5228278;28;8790;-68
2022/05/26 10:50:23;;;;;;;;;0.50;0.50;;;;;;;;5227811;28;8905;-67
2022/05/26 10:53:00;;;;;;;;;0.75;0.75;;;;;;;;5211434;28;8780;-67
2022/05/26 10:55:50;;;;;;;;;1.50;1.50;;;;;;;;5223036;28;8868;-65
2022/05/26 10:58:34;;;;;;;;;1.50;1.50;;;;;;;;5207356;28;8899;-67
2022/05/26 11:01:11;;;;;;;;;2.00;2.00;;;;;;;;5223479;28;8793;-67
2022/05/26 11:03:45;;;;;;;;;1.00;1.00;;;;;;;;5225114;28;8832;-67
2022/05/26 11:06:36;;;;;;;;;4.75;4.75;;;;;;;;5223918;28;8801;-67
2022/05/26 11:09:26;;;;;;;;;2.00;2.00;;;;;;;;5210411;28;8828;-68
2022/05/26 11:11:59;;;;;;;;;2.00;2.00;;;;;;;;5223449;28;8801;-69
2022/05/26 11:17:42;;;;;;;;;2.75;2.50;;;;;;;;5223538;28;9517;-67
2022/05/26 11:20:35;;;;;;;;;1.75;1.00;;;;;;;;5240896;28;8814;-67
2022/05/26 11:23:26;;;;;;;;;1.00;1.00;;;;;;;;5224646;28;8955;-66
2022/05/26 11:26:00;;;;;;;;;1.50;1.50;;;;;;;;5243791;28;8789;-68
2022/05/26 11:28:32;;;;;;;;;2.25;2.25;;;;;;;;5220659;28;8813;-66
2022/05/26 11:37:15;;;;;;;;;2.00;2.00;;;;;;;;5224893;28;9460;-66
2022/05/26 11:39:51;;;;;;;;;0.00;0.00;;;;;;;;5232726;28;8807;-66
2022/05/26 11:42:25;;;;;;;;;1.00;1.00;;;;;;;;5246978;28;8799;-67
2022/05/26 11:44:56;;;;;;;;;1.00;1.00;;;;;;;;5228763;28;8905;-65
2022/05/26 11:47:46;;;;;;;;;2.00;2.00;;;;;;;;5246820;28;8893;-65
2022/05/26 11:50:35;;;;;;;;;1.00;1.00;;;;;;;;5244785;28;9505;-66
2022/05/26 11:53:10;;;;;;;;;0.00;0.00;;;;;;;;5246902;28;8807;-66
2022/05/26 11:55:50;;;;;;;;;1.00;1.00;;;;;;;;5232953;28;8813;-65
2022/05/26 11:58:32;;;;;;;;;2.00;2.00;;;;;;;;5225830;28;8782;-66
2022/05/26 12:01:12;;;;;;;;;1.00;1.00;;;;;;;;5207919;28;8790;-66
2022/05/26 12:03:50;;;;;;;;;1.00;1.00;;;;;;;;5224478;28;8801;-66
2022/05/26 12:06:36;;;;;;;;;0.75;0.75;;;;;;;;5225695;28;8851;-66
2022/05/26 12:09:09;;;;;;;;;1.50;1.50;;;;;;;;5210470;28;8774;-66
2022/05/26 12:11:55;;;;;;;;;1.25;1.25;;;;;;;;5205838;28;8900;-67
2022/05/26 12:14:41;;;;;;;;;2.00;2.00;;;;;;;;5221026;28;8784;-66
2022/05/26 12:17:29;;;;;;;;;1.00;1.00;;;;;;;;5265956;28;8777;-66
2022/05/26 12:20:18;;;;;;;;;2.75;2.75;;;;;;;;5225159;28;8820;-66
2022/05/26 12:22:49;;;;;;;;;0.50;0.50;;;;;;;;5208365;28;8837;-66
2022/05/26 12:25:25;;;;;;;;;1.00;1.00;;;;;;;;5234416;28;8771;-66
2022/05/26 12:28:14;;;;;;;;;1.00;1.00;;;;;;;;5249301;28;11436;-66
2022/05/26 12:30:45;;;;;;;;;0.00;0.00;;;;;;;;5216178;28;8779;-66
2022/05/26 12:33:16;;;;;;;;;1.00;1.00;;;;;;;;5249439;28;8790;-67
2022/05/26 12:35:56;;;;;;;;;2.00;2.00;;;;;;;;5250234;28;8814;-67
2022/05/26 12:38:27;;;;;;;;;1.00;1.00;;;;;;;;5250293;28;9556;-67
2022/05/26 12:41:18;;;;;;;;;0.50;0.50;;;;;;;;5237520;28;8786;-66
2022/05/26 12:44:22;;;;;;;;;0.00;0.00;;;;;;;;5211386;28;8813;-66
2022/05/26 12:47:02;;;;;;;;;2.00;2.00;;;;;;;;5229637;28;8808;-66
2022/05/26 12:49:33;;;;;;;;;2.50;2.50;;;;;;;;5228009;28;8902;-66
2022/05/26 12:52:26;;;;;;;;;2.00;2.00;;;;;;;;5229467;28;8790;-66
2022/05/26 12:54:57;;;;;;;;;2.50;2.50;;;;;;;;5211828;28;8770;-65
2022/05/26 12:57:30;;;;;;;;;1.67;1.67;;;;;;;;5211345;28;8797;-65
2022/05/26 13:00:20;;;;;;;;;1.00;1.00;;;;;;;;5229037;28;8802;-65
2022/05/26 13:02:53;;;;;;;;;1.50;1.50;;;;;;;;5227893;28;8898;-68
2022/05/26 13:05:30;;;;;;;;;2.75;2.75;;;;;;;;5210880;28;8794;-67
2022/05/26 13:08:21;;;;;;;;;6.50;6.25;;;;;;;;5213785;28;9519;-68
2022/05/26 13:10:56;;;;;;;;;2.25;2.25;;;;;;;;5227023;28;8883;-67
2022/05/26 13:13:48;;;;;;;;;4.00;4.00;;;;;;;;5223459;28;8831;-67
2022/05/26 13:16:19;;;;;;;;;4.00;4.00;;;;;;;;5196151;28;8785;-67
2022/05/26 13:18:51;;;;;;;;;4.67;4.67;;;;;;;;5211118;28;8867;-68
2022/05/26 13:21:29;;;;;;;;;6.25;6.25;;;;;;;;5228568;28;9497;-68
2022/05/26 13:24:00;;;;;;;;;37.40;34.20;;;;;;;;5227498;28;9507;-68
2022/05/26 13:26:31;;;;;;;;;20.60;20.00;;;;;;;;5227552;28;8806;-66
2022/05/26 13:29:06;;;;;;;;;6.50;6.50;;;;;;;;5228792;28;8921;-67
2022/05/26 13:35:09;;;;;;;;;6.00;6.00;;;;;;;;5227091;28;8793;-68
2022/05/26 13:37:41;;;;;;;;;4.25;4.25;;;;;;;;5221216;28;8797;-67
2022/05/26 13:40:21;;;;;;;;;2.75;2.75;;;;;;;;5210329;28;8789;-67
2022/05/26 13:42:52;;;;;;;;;2.50;2.50;;;;;;;;5193585;28;9567;-68
2022/05/26 13:45:25;;;;;;;;;4.50;4.25;;;;;;;;5210193;28;9488;-67
2022/05/26 13:48:15;;;;;;;;;5.75;5.75;;;;;;;;5243427;28;8861;-67
2022/05/26 13:50:50;;;;;;;;;6.25;6.25;;;;;;;;5226692;28;8781;-67
2022/05/26 13:53:41;;;;;;;;;22.00;22.00;;;;;;;;5227339;28;8819;-67
2022/05/26 13:56:17;;;;;;;;;5.00;5.00;;;;;;;;5244362;28;8799;-67
2022/05/26 13:58:49;;;;;;;;;5.00;5.00;;;;;;;;5247369;28;8806;-67
2022/05/26 14:01:24;;;;;;;;;4.50;4.50;;;;;;;;5209260;28;8912;-69
2022/05/26 14:04:00;;;;;;;;;2.00;2.00;;;;;;;;5226310;28;8826;-67
2022/05/26 14:06:32;;;;;;;;;2.00;2.00;;;;;;;;5230434;28;9558;-67
2022/05/26 14:09:05;;;;;;;;;2.00;2.00;;;;;;;;5197087;28;8803;-67
2022/05/26 14:11:35;;;;;;;;;4.00;4.00;;;;;;;;5246755;28;8782;-67
2022/05/26 14:14:25;;;;;;;;;2.00;2.00;;;;;;;;5243207;28;8821;-68
2022/05/26 14:17:00;;;;;;;;;4.50;3.25;;;;;;;;5247225;28;8771;-68
2022/05/26 14:19:49;;;;;;;;;4.00;4.00;;;;;;;;5247108;28;8782;-67
2022/05/26 14:22:22;;;;;;;;;3.50;3.50;;;;;;;;5246654;28;8930;-67
2022/05/26 14:24:53;;;;;;;;;5.00;5.00;;;;;;;;5221535;28;8813;-66
2022/05/26 14:27:25;;;;;;;;;3.50;3.50;;;;;;;;5226081;28;8781;-66
2022/05/26 14:30:23;;;;;;;;;9.00;9.00;;;;;;;;5213355;28;8826;-67
2022/05/26 14:32:54;;;;;;;;;2.50;2.50;;;;;;;;5249796;28;9828;-66
2022/05/26 14:35:25;;;;;;;;;2.50;2.50;;;;;;;;5230070;28;8795;-67
2022/05/26 14:38:14;;;;;;;;;4.00;4.00;;;;;;;;5246321;28;8795;-68
2022/05/26 14:40:46;;;;;;;;;2.00;2.00;;;;;;;;5211458;28;8798;-68
2022/05/26 14:43:19;;;;;;;;;5.25;5.25;;;;;;;;5222389;28;9632;-68
2022/05/26 14:45:52;;;;;;;;;4.00;4.00;;;;;;;;5225093;28;8797;-67
2022/05/26 14:48:22;;;;;;;;;3.75;3.75;;;;;;;;5245907;28;8798;-67
2022/05/26 14:50:53;;;;;;;;;7.00;7.00;;;;;;;;5202763;28;8798;-67
2022/05/26 14:57:04;;;;;;;;;7.00;7.00;;;;;;;;5238909;28;8890;-67
2022/05/26 14:59:54;;;;;;;;;7.00;6.25;;;;;;;;5226059;28;8916;-67
2022/05/26 15:02:25;;;;;;;;;5.25;5.00;;;;;;;;5226774;28;8807;-67
2022/05/26 15:05:32;;;;;;;;;12.20;12.20;;;;;;;;5246200;28;8791;-67
2022/05/26 15:08:13;;;;;;;;;4.00;4.00;;;;;;;;5234179;28;8869;-67
2022/05/26 15:10:43;;;;;;;;;9.60;9.00;;;;;;;;5230154;28;8799;-68
2022/05/26 15:13:33;;;;;;;;;5.00;5.00;;;;;;;;5254067;28;8807;-66
2022/05/26 15:16:05;;;;;;;;;3.75;3.75;;;;;;;;5226505;28;8795;-67
2022/05/26 15:18:36;;;;;;;;;6.00;6.00;;;;;;;;5207775;28;11402;-67
2022/05/26 15:21:08;;;;;;;;;4.00;4.00;;;;;;;;5226065;28;8887;-67
2022/05/26 15:23:39;;;;;;;;;2.75;2.75;;;;;;;;5225978;28;9596;-67
2022/05/26 15:26:13;;;;;;;;;5.25;5.25;;;;;;;;5226194;28;8797;-65
2022/05/26 15:28:50;;;;;;;;;7.40;7.40;;;;;;;;5224677;28;8839;-68
2022/05/26 15:31:40;;;;;;;;;6.00;6.00;;;;;;;;5226158;28;8786;-68
2022/05/26 15:34:11;;;;;;;;;5.33;5.33;;;;;;;;5224055;28;8823;-68
2022/05/26 15:36:42;;;;;;;;;4.00;4.00;;;;;;;;5225974;28;8773;-68
2022/05/26 15:39:13;;;;;;;;;3.50;2.50;;;;;;;;5241146;28;8786;-68
2022/05/26 15:41:45;;;;;;;;;5.75;5.75;;;;;;;;5221288;28;8829;-68
2022/05/26 15:44:21;;;;;;;;;7.00;7.00;;;;;;;;5239717;28;8837;-68
2022/05/26 15:46:53;;;;;;;;;7.75;7.75;;;;;;;;5239288;28;8835;-68
2022/05/26 15:49:24;;;;;;;;;12.00;12.00;;;;;;;;5206545;28;8812;-68
2022/05/26 15:51:55;;;;;;;;;11.80;11.80;;;;;;;;5244338;28;8947;-67
2022/05/26 15:54:26;;;;;;;;;24.00;24.00;;;;;;;;5243050;28;8825;-68
2022/05/26 15:56:57;;;;;;;;;57.20;46.60;;;;;;;;5216638;28;10806;-67
2022/05/26 15:59:30;;;;;;;;;27.40;26.00;;;;;;;;5205796;28;9547;-67
2022/05/26 16:02:01;;;;;;;;;19.40;19.20;;;;;;;;5222637;28;8809;-67
2022/05/26 16:04:32;;;;;;;;;17.80;17.80;;;;;;;;5205727;28;9042;-68
2022/05/26 16:07:04;;;;;;;;;11.75;11.75;;;;;;;;5238131;28;9002;-67
2022/05/26 16:09:35;;;;;;;;;6.80;6.80;;;;;;;;5238349;28;8801;-66
2022/05/26 16:12:06;;;;;;;;;12.20;12.00;;;;;;;;5225437;28;8836;-66
2022/05/26 16:14:42;;;;;;;;;18.20;18.00;;;;;;;;5224997;28;8797;-66
2022/05/26 16:17:34;;;;;;;;;29.80;28.80;;;;;;;;5224657;28;8790;-67
2022/05/26 16:20:07;;;;;;;;;31.20;30.40;;;;;;;;5224006;28;8824;-67
2022/05/26 16:22:40;;;;;;;;;37.40;35.20;;;;;;;;5223914;28;8821;-67
2022/05/26 16:25:29;;;;;;;;;21.40;21.40;;;;;;;;5242597;28;8831;-67
2022/05/26 16:28:00;;;;;;;;;17.80;17.80;;;;;;;;5246004;28;8922;-67
2022/05/26 16:30:31;;;;;;;;;8.00;8.00;;;;;;;;5244084;28;8787;-67
2022/05/26 16:33:02;;;;;;;;;9.25;9.25;;;;;;;;5245863;28;10340;-67
2022/05/26 16:38:26;;;;;;;;;3.80;3.80;;;;;;;;5245890;28;8806;-68
2022/05/26 16:40:57;;;;;;;;;18.80;18.80;;;;;;;;5245605;28;8791;-66